createdAt,value
2022-08-17T00:01:27.161Z,20.93
2022-08-17T00:03:54.906Z,20.93
2022-08-17T00:06:29.496Z,20.98
2022-08-17T00:08:59.276Z,20.97
2022-08-17T00:11:32.600Z,20.96
2022-08-17T00:14:03.879Z,20.98
2022-08-17T00:16:51.916Z,20.96
2022-08-17T00:19:25.485Z,20.86
2022-08-17T00:22:29.787Z,20.83
2022-08-17T00:24:42.416Z,20.78
2022-08-17T00:27:08.867Z,20.77
2022-08-17T00:29:35.322Z,20.77
2022-08-17T00:33:14.906Z,20.74
2022-08-17T00:34:49.758Z,20.75
2022-08-17T00:37:16.264Z,20.74
2022-08-17T00:39:42.762Z,20.71
2022-08-17T00:42:17.252Z,20.66
2022-08-17T00:44:43.670Z,20.62
2022-08-17T00:47:10.111Z,20.55
2022-08-17T00:49:36.570Z,20.59
2022-08-17T00:52:12.021Z,20.60
2022-08-17T00:57:15.037Z,20.57
2022-08-17T00:59:47.137Z,20.56
2022-08-17T01:02:35.005Z,20.53
2022-08-17T01:05:23.471Z,20.51
2022-08-17T01:07:52.885Z,20.47
2022-08-17T01:11:00.335Z,20.44
2022-08-17T01:13:19.658Z,20.44
2022-08-17T01:15:55.315Z,20.45
2022-08-17T01:18:21.821Z,20.45
2022-08-17T01:20:50.769Z,20.41
2022-08-17T01:23:20.748Z,20.36
2022-08-17T01:25:54.033Z,20.32
2022-08-17T01:28:53.030Z,20.30
2022-08-17T01:31:09.232Z,20.24
2022-08-17T01:33:36.376Z,20.19
2022-08-17T01:36:04.123Z,20.16
2022-08-17T01:38:31.856Z,20.06
2022-08-17T01:41:06.852Z,20.05
2022-08-17T01:43:57.292Z,19.99
2022-08-17T01:46:33.638Z,19.96
2022-08-17T01:49:01.171Z,19.96
2022-08-17T01:51:33.170Z,19.95
2022-08-17T01:54:05.151Z,19.95
2022-08-17T01:56:33.094Z,19.89
2022-08-17T01:58:59.566Z,19.91
2022-08-17T02:01:30.045Z,19.87
2022-08-17T02:04:00.926Z,19.84
2022-08-17T02:06:52.697Z,19.80
2022-08-17T02:09:18.366Z,19.74
2022-08-17T02:11:46.236Z,19.75
2022-08-17T02:14:13.023Z,19.73
2022-08-17T02:16:41.256Z,19.71
2022-08-17T02:19:15.728Z,19.65
2022-08-17T02:21:46.776Z,19.65
2022-08-17T02:24:17.489Z,19.63
2022-08-17T02:27:04.495Z,19.60
2022-08-17T02:29:31.022Z,19.63
2022-08-17T02:31:58.573Z,19.59
2022-08-17T02:34:25.807Z,19.56
2022-08-17T02:36:53.391Z,19.56
2022-08-17T02:39:20.094Z,19.51
2022-08-17T02:41:46.571Z,19.53
2022-08-17T02:44:13.508Z,19.48
2022-08-17T02:47:00.421Z,19.48
2022-08-17T02:49:26.859Z,19.47
2022-08-17T02:51:53.291Z,19.51
2022-08-17T02:54:41.727Z,19.45
2022-08-17T02:57:06.128Z,19.39
2022-08-17T02:59:32.543Z,19.39
2022-08-17T03:01:59.000Z,19.38
2022-08-17T03:04:25.460Z,19.39
2022-08-17T03:06:51.903Z,19.37
2022-08-17T03:09:18.323Z,19.39
2022-08-17T03:11:44.944Z,19.35
2022-08-17T03:14:12.430Z,19.34
2022-08-17T03:16:38.887Z,19.30
2022-08-17T03:19:05.745Z,19.27
2022-08-17T03:21:32.174Z,19.23
2022-08-17T03:23:58.651Z,19.19
2022-08-17T03:26:25.228Z,19.07
2022-08-17T03:28:56.112Z,19.02
2022-08-17T03:31:22.585Z,18.94
2022-08-17T03:33:49.106Z,18.93
2022-08-17T03:36:15.641Z,18.92
2022-08-17T03:38:42.078Z,18.87
2022-08-17T03:41:11.562Z,18.83
2022-08-17T03:43:38.048Z,18.87
2022-08-17T03:46:34.759Z,18.86
2022-08-17T03:49:25.276Z,18.88
2022-08-17T03:52:11.471Z,18.90
2022-08-17T03:54:58.192Z,18.92
2022-08-17T03:57:24.754Z,18.96
2022-08-17T03:59:51.333Z,18.97
2022-08-17T04:02:21.333Z,18.95
2022-08-17T04:04:50.899Z,18.93
2022-08-17T04:07:22.012Z,18.94
2022-08-17T04:09:48.476Z,18.87
2022-08-17T04:12:18.598Z,18.89
2022-08-17T04:14:51.932Z,18.87
2022-08-17T04:17:27.357Z,18.96
2022-08-17T04:19:54.845Z,19.00
2022-08-17T04:22:32.283Z,19.01
2022-08-17T04:25:17.934Z,19.04
2022-08-17T04:27:44.354Z,18.99
2022-08-17T04:30:11.755Z,19.03
2022-08-17T04:33:06.283Z,19.08
2022-08-17T04:35:42.655Z,19.07
2022-08-17T04:38:11.997Z,19.09
2022-08-17T04:40:57.048Z,19.11
2022-08-17T04:43:25.351Z,19.16
2022-08-17T04:45:57.149Z,19.20
2022-08-17T04:48:29.608Z,19.23
2022-08-17T04:51:07.127Z,19.27
2022-08-17T04:53:33.805Z,19.33
2022-08-17T04:56:00.283Z,19.36
2022-08-17T04:58:27.144Z,19.40
2022-08-17T05:00:53.785Z,19.35
2022-08-17T05:03:20.315Z,19.36
2022-08-17T05:05:49.831Z,19.47
2022-08-17T05:08:18.871Z,19.70
2022-08-17T05:10:46.736Z,19.83
2022-08-17T05:13:16.027Z,19.90
2022-08-17T05:15:45.111Z,20.00
2022-08-17T05:18:12.236Z,20.09
2022-08-17T05:20:40.571Z,20.26
2022-08-17T05:23:11.120Z,20.35
2022-08-17T05:25:42.481Z,20.33
2022-08-17T05:28:15.432Z,20.53
2022-08-17T05:30:44.185Z,20.80
2022-08-17T05:33:14.405Z,21.04
2022-08-17T05:35:44.335Z,21.28
2022-08-17T05:38:11.134Z,21.32
2022-08-17T05:40:38.434Z,21.57
2022-08-17T05:43:16.879Z,21.70
2022-08-17T05:46:07.754Z,21.88
2022-08-17T05:48:41.345Z,21.95
2022-08-17T05:51:42.101Z,22.17
2022-08-17T05:54:31.166Z,22.29
2022-08-17T05:57:36.256Z,22.47
2022-08-17T06:00:34.434Z,22.64
2022-08-17T06:03:26.992Z,22.97
2022-08-17T06:05:59.125Z,23.22
2022-08-17T06:08:52.495Z,23.47
2022-08-17T06:11:22.840Z,23.70
2022-08-17T06:14:25.341Z,24.01
2022-08-17T06:17:00.408Z,24.38
2022-08-17T06:19:51.507Z,24.75
2022-08-17T06:22:22.210Z,24.99
2022-08-17T06:24:53.139Z,25.11
2022-08-17T06:27:31.135Z,25.69
2022-08-17T06:30:12.719Z,25.86
2022-08-17T06:32:43.414Z,26.36
2022-08-17T06:35:14.031Z,26.78
2022-08-17T06:37:40.351Z,26.83
2022-08-17T06:40:37.435Z,27.25
2022-08-17T06:43:18.223Z,27.45
2022-08-17T06:45:57.334Z,27.87
2022-08-17T06:48:46.898Z,28.24
2022-08-17T06:51:34.627Z,28.22
2022-08-17T06:54:13.798Z,28.36
2022-08-17T06:56:59.430Z,28.78
2022-08-17T06:59:47.190Z,29.05
2022-08-17T07:02:52.415Z,29.26
2022-08-17T07:05:22.888Z,29.43
2022-08-17T07:08:09.215Z,29.35
2022-08-17T07:10:50.972Z,29.69
2022-08-17T07:13:33.605Z,29.64
2022-08-17T07:16:17.722Z,30.00
2022-08-17T07:18:44.449Z,30.19
2022-08-17T07:21:30.156Z,30.23
2022-08-17T07:24:29.767Z,30.37
2022-08-17T07:27:06.392Z,30.41
2022-08-17T07:29:39.739Z,30.25
2022-08-17T07:32:07.600Z,30.61
2022-08-17T07:34:59.721Z,30.89
2022-08-17T07:37:26.403Z,30.99
2022-08-17T07:40:15.609Z,30.93
2022-08-17T07:42:44.532Z,30.99
2022-08-17T07:45:34.408Z,31.16
2022-08-17T07:48:19.353Z,31.46
2022-08-17T07:50:49.285Z,31.57
2022-08-17T07:53:25.261Z,31.41
2022-08-17T07:55:53.547Z,31.55
2022-08-17T07:58:23.508Z,31.68
2022-08-17T08:01:08.906Z,31.72
2022-08-17T08:03:42.718Z,31.58
2022-08-17T08:06:24.555Z,31.92
2022-08-17T08:08:54.799Z,31.89
2022-08-17T08:11:32.149Z,31.87
2022-08-17T08:14:29.569Z,32.16
2022-08-17T08:17:04.673Z,32.27
2022-08-17T08:19:33.640Z,32.34
2022-08-17T08:22:11.124Z,32.48
2022-08-17T08:25:23.400Z,32.64
2022-08-17T08:28:16.341Z,32.90
2022-08-17T08:30:48.755Z,32.99
2022-08-17T08:33:32.000Z,32.94
2022-08-17T08:36:07.424Z,33.10
2022-08-17T08:38:53.528Z,33.24
2022-08-17T08:41:30.751Z,33.17
2022-08-17T08:44:19.575Z,33.29
2022-08-17T08:46:59.890Z,33.37
2022-08-17T08:50:02.804Z,33.28
2022-08-17T08:52:51.593Z,33.27
2022-08-17T08:55:37.202Z,33.51
2022-08-17T08:58:32.146Z,33.63
2022-08-17T09:00:58.489Z,33.56
2022-08-17T09:03:52.362Z,33.69
2022-08-17T09:06:38.915Z,33.68
2022-08-17T09:09:42.646Z,33.90
2022-08-17T09:12:25.254Z,33.73
2022-08-17T09:15:01.199Z,33.37
2022-08-17T09:17:43.407Z,33.60
2022-08-17T09:20:27.489Z,33.86
2022-08-17T09:23:02.698Z,34.15
2022-08-17T09:25:32.906Z,33.71
2022-08-17T09:28:06.427Z,33.51
2022-08-17T09:30:43.271Z,33.79
2022-08-17T09:33:12.747Z,33.63
2022-08-17T09:35:45.020Z,33.67
2022-08-17T09:38:21.533Z,33.67
2022-08-17T09:41:01.608Z,33.97
2022-08-17T09:43:27.974Z,33.87
2022-08-17T09:46:03.653Z,33.67
2022-08-17T09:48:42.287Z,33.61
2022-08-17T09:51:26.855Z,33.65
2022-08-17T09:53:53.389Z,33.25
2022-08-17T09:56:47.038Z,33.43
2022-08-17T09:59:34.223Z,33.47
2022-08-17T10:02:25.831Z,33.20
2022-08-17T10:05:08.775Z,33.50
2022-08-17T10:08:08.590Z,33.85
2022-08-17T10:10:43.393Z,33.92
2022-08-17T10:13:37.152Z,33.99
2022-08-17T10:16:20.092Z,33.62
2022-08-17T10:19:10.964Z,34.18
2022-08-17T10:22:00.893Z,34.03
2022-08-17T10:25:21.435Z,34.43
2022-08-17T10:27:52.583Z,34.30
2022-08-17T10:30:23.873Z,34.69
2022-08-17T10:32:55.311Z,34.87
2022-08-17T10:35:30.541Z,34.97
2022-08-17T10:38:24.401Z,34.73
2022-08-17T10:41:04.362Z,34.87
2022-08-17T10:43:38.200Z,34.83
2022-08-17T10:46:31.339Z,34.83
2022-08-17T10:49:16.742Z,34.92
2022-08-17T10:51:56.683Z,35.09
2022-08-17T10:54:47.614Z,35.20
2022-08-17T10:57:32.056Z,34.89
2022-08-17T11:00:00.216Z,34.76
2022-08-17T11:02:40.649Z,34.94
2022-08-17T11:05:42.913Z,34.98
2022-08-17T11:08:31.955Z,35.14
2022-08-17T11:11:23.617Z,34.48
2022-08-17T11:14:13.769Z,34.19
2022-08-17T11:16:40.103Z,34.11
2022-08-17T11:19:24.717Z,34.18
2022-08-17T11:22:16.036Z,34.12
2022-08-17T11:24:47.927Z,34.36
2022-08-17T11:27:27.570Z,34.32
2022-08-17T11:30:01.859Z,34.12
2022-08-17T11:32:36.936Z,34.03
2022-08-17T11:35:21.622Z,33.74
2022-08-17T11:38:13.552Z,33.66
2022-08-17T11:41:01.420Z,33.42
2022-08-17T11:43:50.061Z,33.79
2022-08-17T11:46:25.622Z,34.05
2022-08-17T11:49:10.463Z,34.08
2022-08-17T11:52:01.665Z,33.68
2022-08-17T11:54:33.315Z,33.76
2022-08-17T11:57:27.360Z,34.06
2022-08-17T12:00:46.927Z,33.75
2022-08-17T12:03:33.412Z,33.75
2022-08-17T12:06:17.023Z,33.79
2022-08-17T12:08:55.455Z,33.93
2022-08-17T12:11:56.276Z,33.70
2022-08-17T12:15:06.004Z,33.98
2022-08-17T12:17:39.713Z,34.05
2022-08-17T12:20:19.918Z,33.89
2022-08-17T12:23:14.359Z,33.96
2022-08-17T12:25:47.205Z,33.96
2022-08-17T12:28:27.744Z,34.03
2022-08-17T12:30:59.132Z,34.09
2022-08-17T12:33:28.626Z,34.17
2022-08-17T12:35:59.553Z,34.19
2022-08-17T12:38:31.903Z,33.96
2022-08-17T12:40:59.750Z,33.83
2022-08-17T12:43:31.127Z,34.29
2022-08-17T12:46:01.289Z,34.25
2022-08-17T12:48:59.083Z,34.15
2022-08-17T12:51:27.588Z,34.06
2022-08-17T12:53:55.078Z,34.11
2022-08-17T12:56:21.555Z,34.16
2022-08-17T12:58:54.392Z,34.29
2022-08-17T13:01:23.410Z,34.77
2022-08-17T13:03:53.475Z,34.81
2022-08-17T13:06:33.236Z,34.81
2022-08-17T13:09:17.856Z,35.00
2022-08-17T13:11:53.558Z,34.94
2022-08-17T13:14:20.075Z,34.61
2022-08-17T13:16:53.286Z,34.46
2022-08-17T13:19:39.857Z,34.29
2022-08-17T13:22:11.477Z,34.44
2022-08-17T13:24:38.648Z,34.29
2022-08-17T13:27:09.644Z,33.99
2022-08-17T13:29:53.659Z,33.87
2022-08-17T13:32:33.418Z,34.02
2022-08-17T13:35:15.717Z,34.10
2022-08-17T13:38:02.747Z,34.62
2022-08-17T13:40:35.630Z,34.81
2022-08-17T13:43:03.365Z,34.79
2022-08-17T13:45:35.209Z,34.84
2022-08-17T13:48:11.947Z,34.83
2022-08-17T13:50:42.590Z,34.97
2022-08-17T13:53:38.140Z,35.01
2022-08-17T13:56:37.519Z,35.08
2022-08-17T13:59:00.879Z,35.08
2022-08-17T14:01:53.465Z,34.95
2022-08-17T14:04:31.722Z,35.00
2022-08-17T14:07:32.122Z,35.07
2022-08-17T14:10:04.261Z,34.68
2022-08-17T14:12:33.157Z,34.75
2022-08-17T14:15:00.145Z,34.81
2022-08-17T14:17:28.933Z,34.74
2022-08-17T14:19:55.818Z,34.71
2022-08-17T14:22:28.722Z,34.84
2022-08-17T14:24:57.180Z,34.96
2022-08-17T14:27:26.233Z,34.91
2022-08-17T14:29:53.209Z,35.12
2022-08-17T14:32:26.699Z,34.96
2022-08-17T14:34:56.579Z,35.12
2022-08-17T14:37:26.282Z,35.07
2022-08-17T14:39:58.067Z,34.59
2022-08-17T14:42:27.666Z,34.79
2022-08-17T14:44:55.274Z,34.62
2022-08-17T14:47:22.266Z,34.57
2022-08-17T14:49:48.992Z,34.82
2022-08-17T14:52:21.727Z,34.95
2022-08-17T14:54:51.219Z,34.66
2022-08-17T14:57:26.085Z,34.86
2022-08-17T15:00:01.897Z,34.72
2022-08-17T15:02:29.268Z,34.67
2022-08-17T15:05:01.805Z,34.88
2022-08-17T15:07:30.277Z,34.85
2022-08-17T15:10:00.739Z,34.81
2022-08-17T15:12:31.998Z,34.85
2022-08-17T15:15:00.583Z,34.41
2022-08-17T15:17:27.124Z,34.08
2022-08-17T15:20:18.401Z,34.11
2022-08-17T15:22:46.370Z,34.03
2022-08-17T15:25:14.073Z,33.82
2022-08-17T15:27:40.648Z,33.63
2022-08-17T15:30:08.751Z,33.56
2022-08-17T15:32:38.125Z,33.44
2022-08-17T15:35:06.490Z,33.49
2022-08-17T15:37:33.368Z,33.60
2022-08-17T15:40:03.001Z,33.62
2022-08-17T15:42:29.523Z,33.66
2022-08-17T15:44:56.029Z,33.81
2022-08-17T15:47:22.883Z,33.92
2022-08-17T15:49:50.741Z,33.98
2022-08-17T15:52:24.756Z,34.02
2022-08-17T15:54:52.863Z,33.89
2022-08-17T15:57:20.138Z,33.78
2022-08-17T15:59:47.422Z,33.78
2022-08-17T16:03:15.344Z,33.84
2022-08-17T16:05:15.526Z,33.75
2022-08-17T16:07:45.288Z,33.64
2022-08-17T16:10:16.684Z,33.73
2022-08-17T16:12:46.216Z,33.64
2022-08-17T16:15:13.772Z,33.64
2022-08-17T16:17:43.546Z,33.64
2022-08-17T16:20:20.067Z,33.40
2022-08-17T16:22:49.342Z,33.47
2022-08-17T16:25:19.843Z,33.47
2022-08-17T16:27:47.963Z,33.40
2022-08-17T16:30:17.765Z,33.49
2022-08-17T16:32:45.086Z,33.24
2022-08-17T16:35:14.260Z,33.38
2022-08-17T16:37:44.611Z,33.38
2022-08-17T16:40:13.509Z,33.42
2022-08-17T16:42:40.039Z,33.42
2022-08-17T16:45:08.690Z,33.33
2022-08-17T16:47:35.750Z,33.20
2022-08-17T16:50:04.286Z,33.05
2022-08-17T16:52:32.797Z,33.16
2022-08-17T16:55:01.624Z,33.12
2022-08-17T16:57:29.701Z,33.18
2022-08-17T16:59:57.055Z,33.16
2022-08-17T17:02:27.896Z,33.13
2022-08-17T17:05:13.018Z,33.09
2022-08-17T17:08:03.568Z,32.91
2022-08-17T17:10:47.306Z,32.92
2022-08-17T17:13:57.794Z,32.88
2022-08-17T17:17:01.106Z,32.82
2022-08-17T17:19:37.513Z,32.77
2022-08-17T17:22:30.964Z,32.73
2022-08-17T17:25:15.858Z,32.64
2022-08-17T17:27:54.943Z,32.59
2022-08-17T17:30:29.466Z,32.49
2022-08-17T17:33:04.730Z,32.33
2022-08-17T17:35:48.847Z,32.23
2022-08-17T17:38:20.082Z,32.13
2022-08-17T17:40:50.131Z,32.01
2022-08-17T17:43:39.999Z,31.86
2022-08-17T17:46:27.333Z,31.78
2022-08-17T17:48:55.081Z,31.68
2022-08-17T17:52:06.361Z,31.65
2022-08-17T17:54:50.547Z,31.46
2022-08-17T17:57:47.072Z,31.33
2022-08-17T18:00:52.754Z,31.22
2022-08-17T18:03:30.382Z,31.15
2022-08-17T18:06:21.571Z,31.02
2022-08-17T18:09:04.731Z,30.95
2022-08-17T18:12:02.523Z,30.89
2022-08-17T18:14:28.883Z,30.74
2022-08-17T18:16:58.167Z,30.68
2022-08-17T18:19:27.264Z,30.60
2022-08-17T18:22:14.061Z,30.49
2022-08-17T18:24:44.084Z,30.33
2022-08-17T18:27:31.827Z,30.21
2022-08-17T18:30:04.458Z,30.16
2022-08-17T18:32:39.976Z,30.03
2022-08-17T18:35:09.086Z,29.92
2022-08-17T18:37:46.611Z,29.78
2022-08-17T18:40:23.347Z,29.65
2022-08-17T18:43:10.756Z,29.49
2022-08-17T18:45:49.172Z,29.34
2022-08-17T18:48:49.348Z,29.23
2022-08-17T18:51:42.426Z,28.82
2022-08-17T18:54:20.874Z,28.67
2022-08-17T18:56:59.251Z,28.63
2022-08-17T18:59:34.366Z,28.62
2022-08-17T19:02:20.721Z,28.72
2022-08-17T19:05:01.731Z,28.39
2022-08-17T19:07:32.764Z,28.10
2022-08-17T19:10:09.004Z,28.01
2022-08-17T19:13:01.466Z,27.90
2022-08-17T19:15:34.728Z,27.94
2022-08-17T19:18:14.717Z,27.93
2022-08-17T19:20:47.606Z,27.79
2022-08-17T19:23:35.653Z,27.64
2022-08-17T19:26:06.655Z,27.46
2022-08-17T19:29:01.343Z,27.36
2022-08-17T19:31:30.955Z,27.27
2022-08-17T19:34:00.004Z,27.22
2022-08-17T19:36:58.840Z,27.16
2022-08-17T19:39:41.690Z,27.15
2022-08-17T19:42:14.909Z,26.98
2022-08-17T19:44:56.745Z,26.83
2022-08-17T19:47:55.116Z,26.72
2022-08-17T19:50:39.027Z,26.65
2022-08-17T19:54:03.925Z,26.67
2022-08-17T19:56:35.040Z,26.46
2022-08-17T19:59:11.721Z,26.40
2022-08-17T20:01:47.357Z,26.35
2022-08-17T20:04:32.375Z,26.38
2022-08-17T20:07:18.528Z,26.32
2022-08-17T20:09:54.384Z,26.33
2022-08-17T20:12:26.571Z,26.21
2022-08-17T20:14:57.480Z,26.20
2022-08-17T20:17:32.360Z,26.12
2022-08-17T20:20:19.910Z,25.95
2022-08-17T20:23:12.712Z,25.67
2022-08-17T20:26:03.055Z,25.74
2022-08-17T20:28:35.028Z,25.63
2022-08-17T20:31:23.847Z,25.70
2022-08-17T20:33:51.955Z,25.58
2022-08-17T20:36:22.383Z,25.61
2022-08-17T20:38:57.969Z,25.58
2022-08-17T20:41:27.478Z,25.46
2022-08-17T20:43:56.886Z,25.32
2022-08-17T20:46:30.142Z,25.42
2022-08-17T20:49:11.020Z,25.45
2022-08-17T20:52:00.565Z,25.46
2022-08-17T20:54:42.021Z,25.42
2022-08-17T20:57:13.976Z,25.38
2022-08-17T20:59:43.670Z,25.36
2022-08-17T21:02:19.332Z,25.07
2022-08-17T21:04:53.312Z,25.09
2022-08-17T21:07:43.069Z,25.14
2022-08-17T21:10:17.450Z,25.09
2022-08-17T21:12:47.957Z,25.12
2022-08-17T21:15:42.353Z,25.11
2022-08-17T21:18:31.738Z,25.11
2022-08-17T21:21:31.596Z,25.11
2022-08-17T21:24:07.010Z,25.11
2022-08-17T21:27:09.612Z,25.08
2022-08-17T21:29:53.153Z,25.11
2022-08-17T21:32:28.790Z,25.12
2022-08-17T21:35:07.476Z,25.19
2022-08-17T21:37:44.323Z,25.18
2022-08-17T21:40:10.791Z,25.23
2022-08-17T21:42:58.966Z,25.31
2022-08-17T21:45:37.063Z,25.33
2022-08-17T21:48:13.911Z,25.35
2022-08-17T21:50:44.492Z,25.35
2022-08-17T21:53:28.118Z,25.33
2022-08-17T21:55:57.372Z,25.39
2022-08-17T21:58:40.149Z,25.44
2022-08-17T22:01:12.729Z,25.45
2022-08-17T22:03:55.446Z,25.48
2022-08-17T22:06:26.908Z,25.45
2022-08-17T22:09:27.922Z,25.49
2022-08-17T22:12:06.474Z,25.44
2022-08-17T22:14:53.095Z,25.47
2022-08-17T22:17:27.634Z,25.48
2022-08-17T22:19:59.461Z,25.47
2022-08-17T22:22:32.533Z,25.55
2022-08-17T22:25:23.113Z,25.49
2022-08-17T22:27:57.458Z,25.42
2022-08-17T22:30:30.078Z,25.24
2022-08-17T22:32:57.495Z,25.32
2022-08-17T22:35:35.032Z,25.35
2022-08-17T22:38:19.671Z,25.27
2022-08-17T22:40:52.381Z,25.27
2022-08-17T22:43:25.985Z,25.27
2022-08-17T22:45:57.543Z,25.23
2022-08-17T22:48:27.906Z,25.14
2022-08-17T22:51:12.797Z,25.21
2022-08-17T22:54:08.851Z,25.12
2022-08-17T22:57:05.444Z,25.02
2022-08-17T22:59:44.969Z,24.97
2022-08-17T23:02:25.579Z,24.98
2022-08-17T23:05:12.961Z,24.96
2022-08-17T23:07:40.506Z,24.96
2022-08-17T23:10:09.484Z,24.91
2022-08-17T23:12:39.542Z,24.82
2022-08-17T23:15:15.552Z,24.88
2022-08-17T23:17:42.332Z,24.92
2022-08-17T23:20:14.923Z,24.86
2022-08-17T23:22:52.507Z,24.94
2022-08-17T23:25:26.847Z,24.88
2022-08-17T23:27:54.322Z,24.85
2022-08-17T23:30:21.307Z,24.82
2022-08-17T23:32:53.446Z,24.80
2022-08-17T23:35:20.677Z,24.74
2022-08-17T23:38:07.726Z,24.73
2022-08-17T23:40:34.434Z,24.66
2022-08-17T23:43:00.889Z,24.61
2022-08-17T23:45:32.433Z,24.56
2022-08-17T23:47:58.846Z,24.54
2022-08-17T23:50:25.275Z,24.48
2022-08-17T23:52:57.568Z,24.53
2022-08-17T23:55:23.999Z,24.43
2022-08-17T23:57:50.642Z,24.39
